createdAt,value
2022-12-15T00:00:00.321Z,-5.6
2022-12-15T00:05:00.310Z,-5.6
2022-12-15T00:10:00.331Z,-5.7
2022-12-15T00:15:00.318Z,-5.7
2022-12-15T00:20:00.322Z,-5.7
2022-12-15T00:25:00.319Z,-5.6
2022-12-15T00:30:00.321Z,-5.7
2022-12-15T00:35:00.324Z,-5.6
2022-12-15T00:40:00.323Z,-5.6
2022-12-15T00:45:00.312Z,-5.4
2022-12-15T00:50:00.326Z,-5.4
2022-12-15T00:55:00.331Z,-5.5
2022-12-15T01:00:00.318Z,-5.4
2022-12-15T01:05:00.465Z,-5.3
2022-12-15T01:10:00.402Z,-5.3
2022-12-15T01:15:00.323Z,-5.3
2022-12-15T01:20:00.310Z,-5.1
2022-12-15T01:25:00.318Z,-5.0
2022-12-15T01:30:00.330Z,-4.9
2022-12-15T01:35:00.308Z,-5.0
2022-12-15T01:40:00.317Z,-5.2
2022-12-15T01:45:00.323Z,-5.0
2022-12-15T01:50:00.319Z,-4.9
2022-12-15T01:55:00.327Z,-4.9
2022-12-15T02:00:00.321Z,-5.0
2022-12-15T02:05:00.321Z,-4.9
2022-12-15T02:10:00.321Z,-5.1
2022-12-15T02:15:00.330Z,-4.8
2022-12-15T02:20:00.323Z,-4.8
2022-12-15T02:25:00.331Z,-4.7
2022-12-15T02:30:00.316Z,-4.5
2022-12-15T02:35:00.320Z,-4.5
2022-12-15T02:40:00.320Z,-4.4
2022-12-15T02:45:00.319Z,-4.4
2022-12-15T02:50:00.325Z,-4.2
2022-12-15T02:55:00.311Z,-4.2
2022-12-15T03:00:00.318Z,-4.4
2022-12-15T03:05:00.322Z,-4.4
2022-12-15T03:10:00.325Z,-4.4
2022-12-15T03:15:00.323Z,-4.4
2022-12-15T03:20:00.339Z,-4.4
2022-12-15T03:25:00.320Z,-4.1
2022-12-15T03:30:00.329Z,-4.0
2022-12-15T03:35:00.314Z,-4.1
2022-12-15T03:40:00.329Z,-4.1
2022-12-15T03:45:00.314Z,-4.2
2022-12-15T03:50:00.328Z,-4.1
2022-12-15T03:55:00.316Z,-4.2
2022-12-15T04:00:00.321Z,-4.0
2022-12-15T04:05:00.319Z,-4.2
2022-12-15T04:10:00.322Z,-4.2
2022-12-15T04:15:00.327Z,-4.0
2022-12-15T04:20:00.327Z,-4.1
2022-12-15T04:25:00.344Z,-4.1
2022-12-15T04:30:00.314Z,-4.1
2022-12-15T04:35:00.330Z,-4.2
2022-12-15T04:40:00.330Z,-4.3
2022-12-15T04:45:00.322Z,-4.3
2022-12-15T04:50:00.326Z,-4.4
2022-12-15T04:55:00.330Z,-4.5
2022-12-15T05:00:00.322Z,-4.4
2022-12-15T05:05:00.320Z,-4.3
2022-12-15T05:10:03.121Z,-4.3
2022-12-15T05:15:00.310Z,-4.3
2022-12-15T05:20:00.321Z,-4.2
2022-12-15T05:25:00.317Z,-4.1
2022-12-15T05:30:00.330Z,-4.0
2022-12-15T05:35:00.311Z,-4.0
2022-12-15T05:40:00.331Z,-4.0
2022-12-15T05:45:00.327Z,-3.8
2022-12-15T05:50:00.321Z,-3.8
2022-12-15T05:55:00.321Z,-3.8
2022-12-15T06:00:00.367Z,-3.9
2022-12-15T06:05:00.380Z,-3.7
2022-12-15T06:10:00.316Z,-3.7
2022-12-15T06:15:00.345Z,-3.6
2022-12-15T06:20:00.339Z,-3.6
2022-12-15T06:25:00.323Z,-3.6
2022-12-15T06:30:00.323Z,-3.7
2022-12-15T06:35:00.315Z,-3.8
2022-12-15T06:40:00.325Z,-3.8
2022-12-15T06:45:00.310Z,-3.9
2022-12-15T06:50:00.322Z,-3.7
2022-12-15T06:55:00.318Z,-3.8
2022-12-15T07:00:00.326Z,-3.8
2022-12-15T07:05:00.322Z,-4.0
2022-12-15T07:10:00.327Z,-4.2
2022-12-15T07:15:00.332Z,-4.1
2022-12-15T07:20:00.355Z,-4.1
2022-12-15T07:25:00.320Z,-4.0
2022-12-15T07:30:00.322Z,-4.1
2022-12-15T07:35:00.339Z,-3.8
2022-12-15T07:40:00.328Z,-3.7
2022-12-15T07:45:00.328Z,-3.7
2022-12-15T07:50:00.330Z,-3.7
2022-12-15T07:55:00.315Z,-3.7
2022-12-15T08:00:00.326Z,-3.8
2022-12-15T08:05:00.321Z,-3.9
2022-12-15T08:10:00.326Z,-4.0
2022-12-15T08:15:00.327Z,-3.7
2022-12-15T08:20:06.290Z,-3.8
2022-12-15T08:25:00.320Z,-3.7
2022-12-15T08:30:00.332Z,-3.3
2022-12-15T08:35:00.336Z,-3.3
2022-12-15T08:40:00.319Z,-3.3
2022-12-15T08:45:00.323Z,-3.1
2022-12-15T08:50:00.326Z,-3.0
2022-12-15T08:55:00.324Z,-2.9
2022-12-15T09:00:00.331Z,-3.0
2022-12-15T09:05:00.317Z,-3.0
2022-12-15T09:10:00.318Z,-2.9
2022-12-15T09:15:00.328Z,-2.8
2022-12-15T09:20:00.333Z,-3.0
2022-12-15T09:25:00.349Z,-3.1
2022-12-15T09:30:00.311Z,-2.8
2022-12-15T09:35:00.327Z,-2.7
2022-12-15T09:40:00.326Z,-2.7
2022-12-15T09:45:00.345Z,-2.6
2022-12-15T09:50:00.329Z,-2.4
2022-12-15T09:55:00.388Z,-2.2
2022-12-15T10:00:00.378Z,-2.1
2022-12-15T10:05:00.348Z,-1.9
2022-12-15T10:10:00.377Z,-2.0
2022-12-15T10:15:00.359Z,-2.0
2022-12-15T10:20:00.346Z,-1.9
2022-12-15T10:25:09.690Z,-1.8
2022-12-15T10:30:00.500Z,-1.7
2022-12-15T10:35:00.437Z,-1.7
2022-12-15T10:40:00.355Z,-1.6
2022-12-15T10:45:00.351Z,-1.5
2022-12-15T10:50:00.341Z,-1.4
2022-12-15T10:55:00.334Z,-1.5
2022-12-15T11:00:00.355Z,-1.5
2022-12-15T11:05:00.323Z,-1.5
2022-12-15T11:10:00.344Z,-1.4
2022-12-15T11:15:00.321Z,-1.2
2022-12-15T11:20:03.028Z,-1.3
2022-12-15T11:25:00.328Z,-1.2
2022-12-15T11:30:00.326Z,-1.3
2022-12-15T11:35:00.336Z,-1.2
2022-12-15T11:40:00.325Z,-1.2
2022-12-15T11:45:00.324Z,-1.1
2022-12-15T11:50:00.322Z,-1.2
2022-12-15T11:55:00.322Z,-1.2
2022-12-15T12:00:00.345Z,-1.2
2022-12-15T12:05:00.356Z,-1.1
2022-12-15T12:10:00.315Z,-0.9
2022-12-15T12:15:00.319Z,-0.8
2022-12-15T12:20:00.327Z,-0.8
2022-12-15T12:25:00.315Z,-0.5
2022-12-15T12:30:00.340Z,-0.8
2022-12-15T12:35:31.213Z,-0.6
2022-12-15T12:40:00.332Z,-0.6
2022-12-15T12:45:00.334Z,-0.8
2022-12-15T12:50:00.328Z,-0.6
2022-12-15T12:55:00.327Z,-0.6
2022-12-15T13:00:00.331Z,-0.8
2022-12-15T13:05:00.319Z,-0.6
2022-12-15T13:10:00.333Z,-0.6
2022-12-15T13:15:00.333Z,-0.5
2022-12-15T13:20:00.352Z,-0.7
2022-12-15T13:25:00.332Z,-0.8
2022-12-15T13:30:00.340Z,-0.7
2022-12-15T13:35:00.325Z,-0.9
2022-12-15T13:40:00.328Z,-0.7
2022-12-15T13:45:00.319Z,-0.6
2022-12-15T13:50:02.186Z,-0.5
2022-12-15T13:55:00.318Z,-0.7
2022-12-15T14:00:00.335Z,-1.0
2022-12-15T14:05:00.326Z,-1.0
2022-12-15T14:10:00.312Z,-0.8
2022-12-15T14:15:00.328Z,-0.9
2022-12-15T14:20:00.323Z,-1.0
2022-12-15T14:25:00.323Z,-0.8
2022-12-15T14:30:00.960Z,-1.0
2022-12-15T14:35:00.324Z,-1.0
2022-12-15T14:40:00.327Z,-0.9
2022-12-15T14:45:00.335Z,-1.2
2022-12-15T14:50:00.354Z,-1.1
2022-12-15T14:55:00.318Z,-1.2
2022-12-15T15:00:00.329Z,-1.1
2022-12-15T15:05:00.327Z,-1.2
2022-12-15T15:10:00.339Z,-1.3
2022-12-15T15:15:00.323Z,-1.3
2022-12-15T15:20:00.325Z,-1.3
2022-12-15T15:25:00.339Z,-1.2
2022-12-15T15:30:00.329Z,-1.3
2022-12-15T15:35:00.323Z,-1.3
2022-12-15T15:40:00.322Z,-1.4
2022-12-15T15:45:00.332Z,-1.4
2022-12-15T15:50:00.325Z,-1.5
2022-12-15T15:55:00.322Z,-1.5
2022-12-15T16:00:00.327Z,-1.7
2022-12-15T16:05:00.324Z,-1.7
2022-12-15T16:10:00.336Z,-1.7
2022-12-15T16:15:00.322Z,-1.8
2022-12-15T16:20:00.321Z,-1.8
2022-12-15T16:25:00.321Z,-1.9
2022-12-15T16:30:00.319Z,-2.0
2022-12-15T16:35:00.334Z,-2.2
2022-12-15T16:40:00.450Z,-2.0
2022-12-15T16:50:00.407Z,-2.2
2022-12-15T16:55:00.405Z,-2.0
2022-12-15T17:00:00.406Z,-2.2
2022-12-15T17:05:00.409Z,-2.0
2022-12-15T17:10:00.427Z,-2.0
2022-12-15T17:15:00.409Z,-2.2
2022-12-15T17:20:29.820Z,-2.2
2022-12-15T17:25:00.425Z,-2.0
2022-12-15T17:30:00.454Z,-2.0
2022-12-15T17:35:00.408Z,-2.1
2022-12-15T17:40:00.410Z,-2.2
2022-12-15T17:45:00.462Z,-2.2
2022-12-15T17:50:00.390Z,-2.2
2022-12-15T17:55:00.405Z,-2.2
2022-12-15T18:00:00.511Z,-2.2
2022-12-15T18:05:00.409Z,-2.2
2022-12-15T18:10:00.475Z,-2.2
2022-12-15T18:15:00.396Z,-2.2
2022-12-15T18:20:00.522Z,-2.2
2022-12-15T18:25:00.410Z,-2.2
2022-12-15T18:30:00.524Z,-2.2
2022-12-15T18:35:00.410Z,-2.2
2022-12-15T18:40:04.526Z,-2.2
2022-12-15T18:45:00.486Z,-2.2
2022-12-15T18:50:00.403Z,-2.3
2022-12-15T18:55:00.407Z,-2.2
2022-12-15T19:00:00.406Z,-2.3
2022-12-15T19:05:00.411Z,-2.4
2022-12-15T19:10:00.404Z,-2.3
2022-12-15T19:15:00.404Z,-2.2
2022-12-15T19:20:00.391Z,-2.2
2022-12-15T19:25:00.417Z,-2.2
2022-12-15T19:30:00.418Z,-2.2
2022-12-15T19:35:00.394Z,-2.0
2022-12-15T19:40:00.405Z,-2.0
2022-12-15T19:45:00.412Z,-2.0
2022-12-15T19:50:00.416Z,-2.2
2022-12-15T19:55:00.389Z,-2.0
2022-12-15T20:00:00.453Z,-2.0
2022-12-15T20:05:00.420Z,-2.0
2022-12-15T20:10:00.424Z,-2.2
2022-12-15T20:15:00.405Z,-2.2
2022-12-15T20:20:00.420Z,-2.2
2022-12-15T20:25:00.391Z,-2.2
2022-12-15T20:30:00.412Z,-2.2
2022-12-15T20:35:00.411Z,-2.3
2022-12-15T20:40:00.403Z,-2.3
2022-12-15T20:45:00.392Z,-2.2
2022-12-15T20:50:00.418Z,-2.3
2022-12-15T20:55:00.402Z,-2.3
2022-12-15T21:00:00.410Z,-2.3
2022-12-15T21:05:00.407Z,-2.5
2022-12-15T21:10:00.415Z,-2.3
2022-12-15T21:15:00.404Z,-2.4
2022-12-15T21:20:00.402Z,-2.4
2022-12-15T21:25:00.409Z,-2.4
2022-12-15T21:30:00.411Z,-2.4
2022-12-15T21:35:00.410Z,-2.4
2022-12-15T21:40:00.407Z,-2.4
2022-12-15T21:45:00.433Z,-2.4
2022-12-15T21:50:00.402Z,-2.4
2022-12-15T21:55:00.404Z,-2.4
2022-12-15T22:00:00.407Z,-2.2
2022-12-15T22:05:00.405Z,-2.2
2022-12-15T22:10:00.404Z,-2.0
2022-12-15T22:15:00.406Z,-1.7
2022-12-15T22:20:00.413Z,-1.5
2022-12-15T22:25:00.402Z,-1.5
2022-12-15T22:30:00.408Z,-1.2
2022-12-15T22:35:00.400Z,-1.1
2022-12-15T22:40:00.408Z,-1.1
2022-12-15T22:45:00.395Z,-1.1
2022-12-15T22:50:00.407Z,-1.1
2022-12-15T22:55:00.404Z,-0.9
2022-12-15T23:00:00.562Z,-1.1
2022-12-15T23:05:00.404Z,-1.3
2022-12-15T23:10:00.415Z,-1.2
2022-12-15T23:15:00.395Z,-1.3
2022-12-15T23:20:00.405Z,-1.4
2022-12-15T23:25:00.405Z,-1.2
2022-12-15T23:30:00.409Z,-1.6
2022-12-15T23:35:00.405Z,-1.6
2022-12-15T23:40:00.404Z,-1.6
2022-12-15T23:45:00.519Z,-1.6
2022-12-15T23:50:00.411Z,-1.9
2022-12-15T23:55:00.408Z,-2.0
